createdAt,value
2023-02-03T00:01:29.702Z,6.07
2023-02-03T00:06:32.528Z,4.97
2023-02-03T00:11:34.281Z,4.57
2023-02-03T00:16:36.140Z,5.55
2023-02-03T00:21:37.742Z,4.63
2023-02-03T00:26:43.186Z,4.80
2023-02-03T00:31:44.887Z,4.75
2023-02-03T00:36:47.103Z,5.50
2023-02-03T00:41:48.707Z,5.05
2023-02-03T00:46:50.236Z,3.70
2023-02-03T00:51:52.230Z,3.67
2023-02-03T00:56:55.600Z,3.58
2023-02-03T01:01:57.211Z,4.38
2023-02-03T01:06:59.460Z,4.60
2023-02-03T01:12:01.268Z,3.60
2023-02-03T01:17:02.995Z,3.40
2023-02-03T01:22:04.760Z,4.32
2023-02-03T01:27:06.416Z,3.20
2023-02-03T01:32:08.092Z,3.30
2023-02-03T01:37:10.185Z,3.13
2023-02-03T01:42:15.902Z,2.22
2023-02-03T01:47:22.067Z,2.60
2023-02-03T01:52:24.727Z,3.38
2023-02-03T01:57:41.000Z,2.80
2023-02-03T02:02:45.478Z,2.30
2023-02-03T02:07:48.354Z,2.80
2023-02-03T02:12:50.112Z,2.58
2023-02-03T02:18:40.261Z,2.40
2023-02-03T02:24:10.217Z,3.97
2023-02-03T02:29:42.171Z,3.20
2023-02-03T02:35:26.204Z,2.63
2023-02-03T02:40:32.283Z,2.40
2023-02-03T02:45:49.498Z,2.25
2023-02-03T02:50:55.233Z,3.15
2023-02-03T02:55:59.372Z,2.80
2023-02-03T03:01:02.480Z,2.60
2023-02-03T03:06:09.256Z,2.85
2023-02-03T03:11:14.333Z,2.25
2023-02-03T03:16:18.146Z,1.88
2023-02-03T03:21:36.085Z,2.08
2023-02-03T03:26:57.029Z,2.50
2023-02-03T03:31:58.797Z,3.00
2023-02-03T03:37:24.030Z,2.97
2023-02-03T03:42:34.134Z,2.47
2023-02-03T03:47:49.750Z,3.15
2023-02-03T03:52:54.211Z,2.78
2023-02-03T03:58:18.619Z,2.70
2023-02-03T04:03:35.303Z,2.95
2023-02-03T04:08:36.883Z,3.05
2023-02-03T04:13:38.478Z,2.63
2023-02-03T04:18:41.155Z,3.25
2023-02-03T04:23:42.791Z,3.20
2023-02-03T04:28:44.802Z,2.75
2023-02-03T04:33:46.358Z,3.05
2023-02-03T04:38:51.253Z,2.55
2023-02-03T04:43:53.186Z,2.97
2023-02-03T04:48:54.778Z,3.30
2023-02-03T04:53:56.657Z,2.60
2023-02-03T04:58:58.476Z,2.50
2023-02-03T05:04:00.295Z,2.20
2023-02-03T05:09:02.275Z,2.50
2023-02-03T05:14:04.172Z,1.67
2023-02-03T05:19:06.132Z,2.13
2023-02-03T05:24:08.038Z,2.10
2023-02-03T05:29:09.797Z,2.25
2023-02-03T05:34:11.733Z,2.63
2023-02-03T05:39:13.764Z,2.95
2023-02-03T05:44:15.848Z,2.58
2023-02-03T05:49:17.620Z,2.83
2023-02-03T05:54:19.407Z,2.88
2023-02-03T05:59:20.961Z,2.63
2023-02-03T06:04:22.636Z,2.85
2023-02-03T06:09:24.456Z,2.40
2023-02-03T06:14:26.036Z,1.65
2023-02-03T06:19:27.819Z,1.80
2023-02-03T06:24:29.495Z,2.03
2023-02-03T06:29:31.298Z,1.75
2023-02-03T06:34:33.388Z,1.80
2023-02-03T06:39:35.375Z,2.25
2023-02-03T06:44:36.979Z,1.40
2023-02-03T06:49:38.669Z,1.48
2023-02-03T06:54:40.250Z,1.58
2023-02-03T06:59:42.066Z,1.58
2023-02-03T07:04:43.694Z,1.40
2023-02-03T07:09:45.313Z,1.20
2023-02-03T07:14:46.916Z,1.85
2023-02-03T07:19:48.531Z,1.73
2023-02-03T07:24:50.181Z,1.73
2023-02-03T07:29:52.021Z,1.42
2023-02-03T07:34:53.720Z,1.33
2023-02-03T07:39:55.415Z,1.75
2023-02-03T07:44:57.062Z,1.27
2023-02-03T07:49:58.726Z,1.55
2023-02-03T07:55:00.559Z,1.30
2023-02-03T08:00:02.428Z,1.33
2023-02-03T08:05:14.856Z,1.10
2023-02-03T08:10:16.913Z,1.13
2023-02-03T08:15:18.579Z,1.30
2023-02-03T08:20:20.679Z,1.23
2023-02-03T08:25:22.895Z,1.27
2023-02-03T08:30:25.926Z,1.58
2023-02-03T08:35:28.056Z,1.60
2023-02-03T08:40:30.564Z,2.00
2023-02-03T08:45:32.621Z,1.23
2023-02-03T08:50:34.818Z,1.23
2023-02-03T08:55:39.472Z,1.20
2023-02-03T09:00:42.178Z,1.00
2023-02-03T09:05:43.932Z,1.15
2023-02-03T09:10:45.473Z,1.55
2023-02-03T09:15:47.475Z,1.40
2023-02-03T09:20:49.649Z,1.75
2023-02-03T09:25:51.480Z,1.27
2023-02-03T09:30:53.163Z,2.47
2023-02-03T09:35:55.751Z,2.15
2023-02-03T09:41:26.620Z,1.70
2023-02-03T09:46:33.516Z,2.00
2023-02-03T09:51:47.740Z,2.22
2023-02-03T09:56:52.431Z,1.85
2023-02-03T10:02:00.135Z,1.35
2023-02-03T10:07:17.655Z,1.27
2023-02-03T10:12:46.813Z,2.40
2023-02-03T10:17:55.530Z,1.80
2023-02-03T10:23:01.953Z,5.55
2023-02-03T10:28:14.769Z,2.78
2023-02-03T10:33:19.104Z,2.05
2023-02-03T10:38:36.032Z,1.67
2023-02-03T10:48:40.019Z,1.88
2023-02-03T10:53:41.720Z,1.98
2023-02-03T10:58:58.305Z,2.90
2023-02-03T11:04:05.232Z,3.80
2023-02-03T11:09:28.854Z,2.80
2023-02-03T11:14:38.280Z,3.47
2023-02-03T11:19:40.138Z,2.17
2023-02-03T11:24:42.858Z,2.10
2023-02-03T11:29:50.906Z,1.83
2023-02-03T11:35:05.410Z,1.50
2023-02-03T11:40:06.930Z,2.05
2023-02-03T11:45:24.391Z,2.08
2023-02-03T11:50:47.764Z,2.42
2023-02-03T11:56:07.727Z,2.60
2023-02-03T12:01:27.807Z,2.67
2023-02-03T12:06:38.435Z,3.80
2023-02-03T12:12:11.751Z,2.58
2023-02-03T12:17:50.410Z,3.33
2023-02-03T12:23:02.601Z,4.10
2023-02-03T12:28:09.215Z,3.67
2023-02-03T12:33:24.266Z,2.95
2023-02-03T12:38:38.564Z,3.78
2023-02-03T12:43:46.169Z,4.00
2023-02-03T12:48:56.924Z,4.38
2023-02-03T12:54:06.527Z,5.05
2023-02-03T12:59:22.419Z,4.60
2023-02-03T13:04:44.007Z,4.57
2023-02-03T13:09:54.984Z,5.68
2023-02-03T13:15:11.434Z,4.82
2023-02-03T13:20:19.685Z,5.00
2023-02-03T13:25:45.478Z,4.95
2023-02-03T13:31:22.907Z,5.88
2023-02-03T13:46:43.016Z,6.78
2023-02-03T13:51:46.415Z,6.97
2023-02-03T13:57:03.322Z,6.25
2023-02-03T14:07:24.248Z,6.90
2023-02-03T14:12:35.515Z,8.77
2023-02-03T14:17:43.454Z,8.77
2023-02-03T14:22:45.189Z,8.68
2023-02-03T14:27:48.873Z,8.57
2023-02-03T14:33:01.879Z,8.90
2023-02-03T14:38:09.355Z,8.20
2023-02-03T14:43:22.855Z,8.07
2023-02-03T14:48:30.522Z,8.32
2023-02-03T14:53:43.990Z,7.85
2023-02-03T14:58:50.371Z,7.45
2023-02-03T15:04:13.738Z,6.88
2023-02-03T15:09:39.339Z,8.35
2023-02-03T15:14:41.062Z,7.45
2023-02-03T15:19:43.128Z,7.57
2023-02-03T15:24:44.899Z,6.70
2023-02-03T15:29:46.620Z,7.07
2023-02-03T15:34:49.656Z,6.63
2023-02-03T15:39:54.045Z,7.05
2023-02-03T15:45:24.304Z,6.15
2023-02-03T15:50:31.180Z,5.78
2023-02-03T15:55:38.297Z,5.00
2023-02-03T16:00:41.156Z,5.95
2023-02-03T16:05:42.983Z,5.53
2023-02-03T16:10:44.643Z,5.53
2023-02-03T16:15:57.707Z,5.40
2023-02-03T16:20:59.397Z,6.05
2023-02-03T16:26:28.756Z,4.85
2023-02-03T16:31:30.443Z,5.07
2023-02-03T16:36:32.320Z,5.28
2023-02-03T16:41:34.160Z,5.30
2023-02-03T16:46:37.194Z,5.22
2023-02-03T16:51:42.068Z,5.75
2023-02-03T16:56:43.710Z,4.38
2023-02-03T17:01:45.438Z,4.80
2023-02-03T17:06:47.184Z,4.68
2023-02-03T17:11:49.031Z,4.30
2023-02-03T17:16:50.997Z,4.43
2023-02-03T17:21:52.698Z,4.60
2023-02-03T17:26:54.529Z,3.40
2023-02-03T17:31:56.310Z,3.92
2023-02-03T17:36:58.130Z,2.70
2023-02-03T17:57:57.679Z,3.83
2023-02-03T18:03:00.008Z,3.35
2023-02-03T18:08:08.918Z,4.57
2023-02-03T18:13:18.201Z,3.47
2023-02-03T18:23:37.422Z,3.73
2023-02-03T18:28:40.066Z,4.10
2023-02-03T18:33:43.702Z,3.45
2023-02-03T18:38:47.504Z,2.85
2023-02-03T18:43:49.958Z,4.32
2023-02-03T18:48:52.184Z,3.80
2023-02-03T18:53:58.454Z,3.97
2023-02-03T18:59:00.201Z,3.45
2023-02-03T19:04:02.969Z,3.30
2023-02-03T19:09:04.934Z,3.17
2023-02-03T19:14:06.531Z,3.35
2023-02-03T19:19:08.400Z,4.30
2023-02-03T19:24:13.352Z,3.55
2023-02-03T19:29:15.781Z,4.18
2023-02-03T19:34:17.797Z,6.13
2023-02-03T19:39:19.430Z,5.13
2023-02-03T19:44:21.186Z,4.47
2023-02-03T19:49:22.923Z,6.45
2023-02-03T19:54:24.587Z,5.00
2023-02-03T19:59:26.217Z,4.65
2023-02-03T20:04:27.804Z,5.80
2023-02-03T20:09:29.387Z,6.50
2023-02-03T20:14:31.112Z,6.72
2023-02-03T20:19:33.375Z,7.53
2023-02-03T20:24:35.392Z,6.75
2023-02-03T20:29:37.307Z,7.38
2023-02-03T20:34:39.093Z,6.60
2023-02-03T20:39:41.272Z,6.43
2023-02-03T20:44:43.746Z,7.40
2023-02-03T20:49:46.250Z,7.50
2023-02-03T20:54:47.914Z,6.03
2023-02-03T20:59:49.596Z,4.88
2023-02-03T21:04:51.161Z,4.80
2023-02-03T21:09:54.276Z,3.97
2023-02-03T21:14:55.927Z,4.35
2023-02-03T21:19:57.717Z,3.50
2023-02-03T21:25:01.107Z,3.60
2023-02-03T21:30:22.255Z,3.42
2023-02-03T21:35:36.053Z,4.32
2023-02-03T21:40:37.756Z,3.33
2023-02-03T21:45:42.802Z,2.65
2023-02-03T21:50:44.543Z,4.22
2023-02-03T21:55:46.217Z,5.55
2023-02-03T22:00:48.039Z,3.53
2023-02-03T22:05:50.018Z,4.63
2023-02-03T22:10:51.778Z,2.97
2023-02-03T22:15:53.490Z,4.00
2023-02-03T22:20:55.320Z,3.38
2023-02-03T22:25:57.096Z,4.22
2023-02-03T22:30:58.685Z,3.80
2023-02-03T22:36:00.557Z,4.05
2023-02-03T22:41:03.048Z,3.45
2023-02-03T22:46:05.097Z,3.90
2023-02-03T22:51:07.254Z,3.58
2023-02-03T22:56:08.986Z,3.78
2023-02-03T23:01:10.715Z,3.00
2023-02-03T23:06:12.338Z,3.03
2023-02-03T23:11:13.978Z,2.83
2023-02-03T23:16:15.744Z,4.03
2023-02-03T23:21:17.486Z,3.53
2023-02-03T23:26:19.084Z,3.30
2023-02-03T23:31:20.915Z,3.67
2023-02-03T23:36:22.541Z,3.95
2023-02-03T23:41:24.283Z,4.60
2023-02-03T23:46:25.894Z,3.53
2023-02-03T23:51:27.513Z,3.00
2023-02-03T23:56:29.071Z,2.97
